sensor_id;sensor_type;location;lat;lon;timestamp;P1;durP1;ratioP1;P2;durP2;ratioP2
51778;SDS011;37843;53.266;6.746;2022-09-28T00:02:03;3.95;;;2.63;;
51778;SDS011;37843;53.266;6.746;2022-09-28T00:04:29;3.10;;;2.65;;
51778;SDS011;37843;53.266;6.746;2022-09-28T00:06:57;4.45;;;2.55;;
51778;SDS011;37843;53.266;6.746;2022-09-28T00:09:23;2.95;;;2.40;;
51778;SDS011;37843;53.266;6.746;2022-09-28T00:11:50;3.53;;;2.80;;
51778;SDS011;37843;53.266;6.746;2022-09-28T00:14:17;2.55;;;2.13;;
51778;SDS011;37843;53.266;6.746;2022-09-28T00:16:44;5.05;;;2.83;;
51778;SDS011;37843;53.266;6.746;2022-09-28T00:19:10;3.05;;;2.75;;
51778;SDS011;37843;53.266;6.746;2022-09-28T00:21:38;2.47;;;2.08;;
51778;SDS011;37843;53.266;6.746;2022-09-28T00:24:05;2.42;;;1.85;;
51778;SDS011;37843;53.266;6.746;2022-09-28T00:26:54;2.03;;;1.83;;
51778;SDS011;37843;53.266;6.746;2022-09-28T00:29:25;1.63;;;1.40;;
51778;SDS011;37843;53.266;6.746;2022-09-28T00:31:53;2.22;;;1.80;;
51778;SDS011;37843;53.266;6.746;2022-09-28T00:34:24;7.57;;;2.10;;
51778;SDS011;37843;53.266;6.746;2022-09-28T00:36:50;1.63;;;1.50;;
51778;SDS011;37843;53.266;6.746;2022-09-28T00:39:17;1.70;;;1.38;;
51778;SDS011;37843;53.266;6.746;2022-09-28T00:41:44;1.10;;;1.00;;
51778;SDS011;37843;53.266;6.746;2022-09-28T00:46:53;2.60;;;2.35;;
51778;SDS011;37843;53.266;6.746;2022-09-28T00:49:21;6.22;;;1.88;;
51778;SDS011;37843;53.266;6.746;2022-09-28T00:51:49;2.35;;;2.05;;
51778;SDS011;37843;53.266;6.746;2022-09-28T00:54:15;2.28;;;1.70;;
51778;SDS011;37843;53.266;6.746;2022-09-28T00:56:42;2.03;;;1.63;;
51778;SDS011;37843;53.266;6.746;2022-09-28T00:59:11;2.70;;;1.70;;
51778;SDS011;37843;53.266;6.746;2022-09-28T01:01:38;1.83;;;1.65;;
51778;SDS011;37843;53.266;6.746;2022-09-28T01:04:04;4.72;;;1.60;;
51778;SDS011;37843;53.266;6.746;2022-09-28T01:06:31;7.75;;;1.70;;
51778;SDS011;37843;53.266;6.746;2022-09-28T01:08:59;1.30;;;1.15;;
51778;SDS011;37843;53.266;6.746;2022-09-28T01:11:27;1.20;;;1.10;;
51778;SDS011;37843;53.266;6.746;2022-09-28T01:13:55;1.63;;;1.42;;
51778;SDS011;37843;53.266;6.746;2022-09-28T01:22:05;5.40;;;2.10;;
51778;SDS011;37843;53.266;6.746;2022-09-28T01:29:41;11.48;;;2.80;;
51778;SDS011;37843;53.266;6.746;2022-09-28T01:37:20;5.38;;;3.20;;
51778;SDS011;37843;53.266;6.746;2022-09-28T01:39:47;6.07;;;2.45;;
51778;SDS011;37843;53.266;6.746;2022-09-28T01:42:19;2.22;;;2.03;;
51778;SDS011;37843;53.266;6.746;2022-09-28T01:44:47;5.20;;;2.42;;
51778;SDS011;37843;53.266;6.746;2022-09-28T01:47:16;8.02;;;2.88;;
51778;SDS011;37843;53.266;6.746;2022-09-28T01:49:52;6.15;;;2.70;;
51778;SDS011;37843;53.266;6.746;2022-09-28T01:52:25;8.73;;;2.95;;
51778;SDS011;37843;53.266;6.746;2022-09-28T01:57:37;2.40;;;2.20;;
51778;SDS011;37843;53.266;6.746;2022-09-28T02:00:06;2.17;;;1.98;;
51778;SDS011;37843;53.266;6.746;2022-09-28T02:02:34;5.20;;;2.40;;
51778;SDS011;37843;53.266;6.746;2022-09-28T02:05:22;6.20;;;2.20;;
51778;SDS011;37843;53.266;6.746;2022-09-28T02:07:55;3.90;;;2.03;;
51778;SDS011;37843;53.266;6.746;2022-09-28T02:10:25;2.47;;;2.28;;
51778;SDS011;37843;53.266;6.746;2022-09-28T02:12:55;2.72;;;2.20;;
51778;SDS011;37843;53.266;6.746;2022-09-28T02:15:29;2.90;;;2.38;;
51778;SDS011;37843;53.266;6.746;2022-09-28T02:17:58;2.13;;;1.88;;
51778;SDS011;37843;53.266;6.746;2022-09-28T02:20:24;2.17;;;1.55;;
51778;SDS011;37843;53.266;6.746;2022-09-28T02:22:52;3.50;;;2.05;;
51778;SDS011;37843;53.266;6.746;2022-09-28T02:27:57;2.47;;;2.03;;
51778;SDS011;37843;53.266;6.746;2022-09-28T02:30:24;18.05;;;3.45;;
51778;SDS011;37843;53.266;6.746;2022-09-28T02:32:51;2.47;;;1.45;;
51778;SDS011;37843;53.266;6.746;2022-09-28T02:35:19;3.45;;;2.10;;
51778;SDS011;37843;53.266;6.746;2022-09-28T02:37:45;4.63;;;2.00;;
51778;SDS011;37843;53.266;6.746;2022-09-28T02:40:13;2.08;;;1.88;;
51778;SDS011;37843;53.266;6.746;2022-09-28T03:00:07;33.75;;;4.22;;
51778;SDS011;37843;53.266;6.746;2022-09-28T03:05:08;58.10;;;5.60;;
51778;SDS011;37843;53.266;6.746;2022-09-28T03:07:48;51.10;;;5.95;;
51778;SDS011;37843;53.266;6.746;2022-09-28T03:10:18;47.78;;;5.53;;
51778;SDS011;37843;53.266;6.746;2022-09-28T03:12:46;60.97;;;5.68;;
51778;SDS011;37843;53.266;6.746;2022-09-28T03:17:46;44.50;;;5.40;;
51778;SDS011;37843;53.266;6.746;2022-09-28T03:20:12;36.55;;;5.68;;
51778;SDS011;37843;53.266;6.746;2022-09-28T03:22:38;44.03;;;5.85;;
51778;SDS011;37843;53.266;6.746;2022-09-28T03:25:05;26.10;;;5.00;;
51778;SDS011;37843;53.266;6.746;2022-09-28T03:27:31;35.67;;;5.25;;
51778;SDS011;37843;53.266;6.746;2022-09-28T03:29:57;25.50;;;6.22;;
51778;SDS011;37843;53.266;6.746;2022-09-28T03:32:23;33.75;;;6.28;;
51778;SDS011;37843;53.266;6.746;2022-09-28T03:34:49;30.08;;;6.15;;
51778;SDS011;37843;53.266;6.746;2022-09-28T03:37:16;43.35;;;6.63;;
51778;SDS011;37843;53.266;6.746;2022-09-28T03:39:42;10.35;;;4.60;;
51778;SDS011;37843;53.266;6.746;2022-09-28T03:42:08;9.35;;;4.47;;
51778;SDS011;37843;53.266;6.746;2022-09-28T03:44:34;22.83;;;4.70;;
51778;SDS011;37843;53.266;6.746;2022-09-28T03:47:00;10.38;;;4.05;;
51778;SDS011;37843;53.266;6.746;2022-09-28T03:49:26;4.80;;;3.88;;
51778;SDS011;37843;53.266;6.746;2022-09-28T03:51:52;8.50;;;4.32;;
51778;SDS011;37843;53.266;6.746;2022-09-28T03:54:18;10.93;;;4.07;;
51778;SDS011;37843;53.266;6.746;2022-09-28T03:56:44;9.95;;;4.63;;
51778;SDS011;37843;53.266;6.746;2022-09-28T03:59:10;7.22;;;4.97;;
51778;SDS011;37843;53.266;6.746;2022-09-28T04:01:36;11.68;;;4.82;;
51778;SDS011;37843;53.266;6.746;2022-09-28T04:04:02;12.48;;;4.35;;
51778;SDS011;37843;53.266;6.746;2022-09-28T04:06:28;16.17;;;5.13;;
51778;SDS011;37843;53.266;6.746;2022-09-28T04:08:55;21.13;;;4.90;;
51778;SDS011;37843;53.266;6.746;2022-09-28T04:11:21;11.30;;;4.57;;
51778;SDS011;37843;53.266;6.746;2022-09-28T04:13:48;5.82;;;3.90;;
51778;SDS011;37843;53.266;6.746;2022-09-28T04:16:14;7.38;;;4.15;;
51778;SDS011;37843;53.266;6.746;2022-09-28T04:18:41;7.20;;;3.97;;
51778;SDS011;37843;53.266;6.746;2022-09-28T04:21:09;11.88;;;4.13;;
51778;SDS011;37843;53.266;6.746;2022-09-28T04:23:36;13.40;;;4.68;;
51778;SDS011;37843;53.266;6.746;2022-09-28T04:26:03;10.40;;;4.68;;
51778;SDS011;37843;53.266;6.746;2022-09-28T04:28:29;15.05;;;5.15;;
51778;SDS011;37843;53.266;6.746;2022-09-28T04:31:18;8.73;;;4.95;;
51778;SDS011;37843;53.266;6.746;2022-09-28T04:33:45;11.25;;;4.85;;
51778;SDS011;37843;53.266;6.746;2022-09-28T04:36:11;7.30;;;4.63;;
51778;SDS011;37843;53.266;6.746;2022-09-28T04:38:38;7.63;;;4.78;;
51778;SDS011;37843;53.266;6.746;2022-09-28T04:41:05;13.98;;;4.93;;
51778;SDS011;37843;53.266;6.746;2022-09-28T04:43:31;10.60;;;5.13;;
51778;SDS011;37843;53.266;6.746;2022-09-28T04:45:58;5.22;;;4.68;;
51778;SDS011;37843;53.266;6.746;2022-09-28T04:48:24;13.00;;;4.70;;
51778;SDS011;37843;53.266;6.746;2022-09-28T04:50:51;5.93;;;4.30;;
51778;SDS011;37843;53.266;6.746;2022-09-28T04:53:18;11.73;;;5.22;;
51778;SDS011;37843;53.266;6.746;2022-09-28T04:55:44;22.58;;;5.13;;
51778;SDS011;37843;53.266;6.746;2022-09-28T04:58:10;14.90;;;4.22;;
51778;SDS011;37843;53.266;6.746;2022-09-28T05:00:36;10.68;;;4.40;;
51778;SDS011;37843;53.266;6.746;2022-09-28T05:03:03;10.30;;;4.03;;
51778;SDS011;37843;53.266;6.746;2022-09-28T05:05:29;12.25;;;4.82;;
51778;SDS011;37843;53.266;6.746;2022-09-28T05:07:58;14.15;;;4.82;;
51778;SDS011;37843;53.266;6.746;2022-09-28T05:10:24;12.63;;;5.13;;
51778;SDS011;37843;53.266;6.746;2022-09-28T05:12:50;39.30;;;6.00;;
51778;SDS011;37843;53.266;6.746;2022-09-28T05:15:16;17.02;;;5.30;;
51778;SDS011;37843;53.266;6.746;2022-09-28T05:17:42;23.20;;;6.10;;
51778;SDS011;37843;53.266;6.746;2022-09-28T05:20:08;40.55;;;6.03;;
51778;SDS011;37843;53.266;6.746;2022-09-28T05:22:34;22.80;;;4.82;;
51778;SDS011;37843;53.266;6.746;2022-09-28T05:25:00;38.15;;;5.60;;
51778;SDS011;37843;53.266;6.746;2022-09-28T05:27:27;82.75;;;8.23;;
51778;SDS011;37843;53.266;6.746;2022-09-28T05:29:53;57.08;;;7.03;;
51778;SDS011;37843;53.266;6.746;2022-09-28T05:32:19;78.75;;;9.05;;
51778;SDS011;37843;53.266;6.746;2022-09-28T05:34:45;91.03;;;8.65;;
51778;SDS011;37843;53.266;6.746;2022-09-28T05:37:11;100.25;;;9.18;;
51778;SDS011;37843;53.266;6.746;2022-09-28T05:39:37;54.03;;;6.95;;
51778;SDS011;37843;53.266;6.746;2022-09-28T05:42:03;89.35;;;8.40;;
51778;SDS011;37843;53.266;6.746;2022-09-28T05:44:29;75.13;;;7.25;;
51778;SDS011;37843;53.266;6.746;2022-09-28T05:46:55;52.67;;;6.60;;
51778;SDS011;37843;53.266;6.746;2022-09-28T05:49:21;91.43;;;8.43;;
51778;SDS011;37843;53.266;6.746;2022-09-28T05:51:48;95.07;;;8.23;;
51778;SDS011;37843;53.266;6.746;2022-09-28T05:54:14;90.18;;;9.68;;
51778;SDS011;37843;53.266;6.746;2022-09-28T05:56:40;97.78;;;8.52;;
51778;SDS011;37843;53.266;6.746;2022-09-28T05:59:06;135.00;;;11.50;;
51778;SDS011;37843;53.266;6.746;2022-09-28T06:01:32;50.33;;;7.35;;
51778;SDS011;37843;53.266;6.746;2022-09-28T06:03:58;41.40;;;7.03;;
51778;SDS011;37843;53.266;6.746;2022-09-28T06:06:24;59.50;;;7.35;;
51778;SDS011;37843;53.266;6.746;2022-09-28T06:08:50;70.45;;;6.75;;
51778;SDS011;37843;53.266;6.746;2022-09-28T06:11:16;51.92;;;7.53;;
51778;SDS011;37843;53.266;6.746;2022-09-28T06:13:43;31.08;;;5.95;;
51778;SDS011;37843;53.266;6.746;2022-09-28T06:16:14;49.90;;;6.30;;
51778;SDS011;37843;53.266;6.746;2022-09-28T06:18:40;81.38;;;7.03;;
51778;SDS011;37843;53.266;6.746;2022-09-28T06:21:07;46.80;;;6.32;;
51778;SDS011;37843;53.266;6.746;2022-09-28T06:23:35;24.33;;;6.20;;
51778;SDS011;37843;53.266;6.746;2022-09-28T06:26:01;32.35;;;7.10;;
51778;SDS011;37843;53.266;6.746;2022-09-28T06:28:27;33.20;;;5.40;;
51778;SDS011;37843;53.266;6.746;2022-09-28T06:30:53;23.92;;;5.55;;
51778;SDS011;37843;53.266;6.746;2022-09-28T06:33:19;34.58;;;5.15;;
51778;SDS011;37843;53.266;6.746;2022-09-28T06:35:46;24.23;;;5.40;;
51778;SDS011;37843;53.266;6.746;2022-09-28T06:38:12;14.13;;;5.15;;
51778;SDS011;37843;53.266;6.746;2022-09-28T06:40:38;40.47;;;7.13;;
51778;SDS011;37843;53.266;6.746;2022-09-28T06:43:05;56.03;;;7.35;;
51778;SDS011;37843;53.266;6.746;2022-09-28T06:45:34;50.65;;;6.07;;
51778;SDS011;37843;53.266;6.746;2022-09-28T06:48:01;46.65;;;6.40;;
51778;SDS011;37843;53.266;6.746;2022-09-28T06:50:30;38.85;;;6.32;;
51778;SDS011;37843;53.266;6.746;2022-09-28T06:52:56;69.38;;;7.32;;
51778;SDS011;37843;53.266;6.746;2022-09-28T06:55:23;64.07;;;7.60;;
51778;SDS011;37843;53.266;6.746;2022-09-28T06:57:59;38.72;;;7.72;;
51778;SDS011;37843;53.266;6.746;2022-09-28T07:00:29;35.42;;;6.18;;
51778;SDS011;37843;53.266;6.746;2022-09-28T07:02:58;45.65;;;6.70;;
51778;SDS011;37843;53.266;6.746;2022-09-28T07:05:24;49.58;;;7.28;;
51778;SDS011;37843;53.266;6.746;2022-09-28T07:07:57;35.13;;;7.22;;
51778;SDS011;37843;53.266;6.746;2022-09-28T07:10:24;54.03;;;7.80;;
51778;SDS011;37843;53.266;6.746;2022-09-28T07:12:52;90.20;;;13.13;;
51778;SDS011;37843;53.266;6.746;2022-09-28T07:15:19;49.85;;;7.07;;
51778;SDS011;37843;53.266;6.746;2022-09-28T07:17:46;40.42;;;7.72;;
51778;SDS011;37843;53.266;6.746;2022-09-28T07:20:12;55.45;;;8.90;;
51778;SDS011;37843;53.266;6.746;2022-09-28T07:22:38;61.47;;;6.85;;
51778;SDS011;37843;53.266;6.746;2022-09-28T07:25:05;74.53;;;9.55;;
51778;SDS011;37843;53.266;6.746;2022-09-28T07:27:32;71.93;;;8.45;;
51778;SDS011;37843;53.266;6.746;2022-09-28T07:29:58;77.53;;;9.18;;
51778;SDS011;37843;53.266;6.746;2022-09-28T07:32:25;78.72;;;10.02;;
51778;SDS011;37843;53.266;6.746;2022-09-28T07:34:52;86.80;;;9.45;;
51778;SDS011;37843;53.266;6.746;2022-09-28T07:37:20;51.67;;;9.40;;
51778;SDS011;37843;53.266;6.746;2022-09-28T07:39:48;100.38;;;11.32;;
51778;SDS011;37843;53.266;6.746;2022-09-28T07:42:33;87.75;;;9.93;;
51778;SDS011;37843;53.266;6.746;2022-09-28T07:45:00;72.47;;;10.52;;
51778;SDS011;37843;53.266;6.746;2022-09-28T07:47:27;105.63;;;11.55;;
51778;SDS011;37843;53.266;6.746;2022-09-28T07:49:54;71.72;;;9.75;;
51778;SDS011;37843;53.266;6.746;2022-09-28T07:52:22;84.35;;;9.63;;
51778;SDS011;37843;53.266;6.746;2022-09-28T07:54:51;101.30;;;11.30;;
51778;SDS011;37843;53.266;6.746;2022-09-28T07:57:18;85.28;;;10.13;;
51778;SDS011;37843;53.266;6.746;2022-09-28T07:59:45;78.68;;;10.60;;
51778;SDS011;37843;53.266;6.746;2022-09-28T08:02:11;89.35;;;11.18;;
51778;SDS011;37843;53.266;6.746;2022-09-28T08:04:39;76.47;;;9.75;;
51778;SDS011;37843;53.266;6.746;2022-09-28T08:07:09;103.97;;;11.68;;
51778;SDS011;37843;53.266;6.746;2022-09-28T08:09:38;133.45;;;13.90;;
51778;SDS011;37843;53.266;6.746;2022-09-28T08:12:05;85.50;;;12.05;;
51778;SDS011;37843;53.266;6.746;2022-09-28T08:14:32;84.68;;;11.25;;
51778;SDS011;37843;53.266;6.746;2022-09-28T08:16:59;94.32;;;12.43;;
51778;SDS011;37843;53.266;6.746;2022-09-28T08:19:26;39.72;;;9.70;;
51778;SDS011;37843;53.266;6.746;2022-09-28T08:22:12;59.45;;;10.70;;
51778;SDS011;37843;53.266;6.746;2022-09-28T08:24:38;12.27;;;7.25;;
51778;SDS011;37843;53.266;6.746;2022-09-28T08:27:04;75.78;;;11.85;;
51778;SDS011;37843;53.266;6.746;2022-09-28T08:29:34;12.02;;;7.13;;
51778;SDS011;37843;53.266;6.746;2022-09-28T08:32:01;28.83;;;8.07;;
51778;SDS011;37843;53.266;6.746;2022-09-28T08:34:27;21.25;;;8.55;;
51778;SDS011;37843;53.266;6.746;2022-09-28T08:36:55;12.18;;;7.50;;
51778;SDS011;37843;53.266;6.746;2022-09-28T08:39:21;10.70;;;6.97;;
51778;SDS011;37843;53.266;6.746;2022-09-28T08:41:50;16.33;;;7.78;;
51778;SDS011;37843;53.266;6.746;2022-09-28T08:44:20;10.30;;;7.13;;
51778;SDS011;37843;53.266;6.746;2022-09-28T08:47:33;11.10;;;7.35;;
51778;SDS011;37843;53.266;6.746;2022-09-28T08:49:59;8.50;;;6.63;;
51778;SDS011;37843;53.266;6.746;2022-09-28T08:52:29;9.07;;;7.15;;
51778;SDS011;37843;53.266;6.746;2022-09-28T08:54:58;9.52;;;7.13;;
51778;SDS011;37843;53.266;6.746;2022-09-28T08:59:54;9.65;;;7.22;;
51778;SDS011;37843;53.266;6.746;2022-09-28T09:02:31;8.73;;;6.63;;
51778;SDS011;37843;53.266;6.746;2022-09-28T09:05:03;8.63;;;6.88;;
51778;SDS011;37843;53.266;6.746;2022-09-28T09:10:00;8.57;;;6.82;;
51778;SDS011;37843;53.266;6.746;2022-09-28T09:12:53;10.10;;;7.13;;
51778;SDS011;37843;53.266;6.746;2022-09-28T09:20:33;8.38;;;5.97;;
51778;SDS011;37843;53.266;6.746;2022-09-28T09:23:16;9.00;;;6.80;;
51778;SDS011;37843;53.266;6.746;2022-09-28T09:36:16;8.77;;;5.60;;
51778;SDS011;37843;53.266;6.746;2022-09-28T09:46:37;7.68;;;5.28;;
51778;SDS011;37843;53.266;6.746;2022-09-28T09:51:56;8.18;;;6.45;;
51778;SDS011;37843;53.266;6.746;2022-09-28T09:54:32;6.75;;;5.93;;
51778;SDS011;37843;53.266;6.746;2022-09-28T09:57:37;6.60;;;5.60;;
51778;SDS011;37843;53.266;6.746;2022-09-28T09:59:53;7.28;;;5.22;;
51778;SDS011;37843;53.266;6.746;2022-09-28T10:04:46;6.80;;;5.20;;
51778;SDS011;37843;53.266;6.746;2022-09-28T10:07:21;7.03;;;4.93;;
51778;SDS011;37843;53.266;6.746;2022-09-28T10:09:48;4.33;;;3.83;;
51778;SDS011;37843;53.266;6.746;2022-09-28T10:12:17;5.97;;;4.78;;
51778;SDS011;37843;53.266;6.746;2022-09-28T10:14:44;5.65;;;4.95;;
51778;SDS011;37843;53.266;6.746;2022-09-28T10:17:11;4.85;;;4.18;;
51778;SDS011;37843;53.266;6.746;2022-09-28T10:19:38;6.05;;;4.30;;
51778;SDS011;37843;53.266;6.746;2022-09-28T10:22:04;4.40;;;3.80;;
51778;SDS011;37843;53.266;6.746;2022-09-28T10:24:32;7.63;;;4.30;;
51778;SDS011;37843;53.266;6.746;2022-09-28T10:27:21;5.60;;;3.58;;
51778;SDS011;37843;53.266;6.746;2022-09-28T10:32:21;6.25;;;3.65;;
51778;SDS011;37843;53.266;6.746;2022-09-28T10:34:48;4.85;;;3.50;;
51778;SDS011;37843;53.266;6.746;2022-09-28T10:37:15;2.78;;;2.30;;
51778;SDS011;37843;53.266;6.746;2022-09-28T10:39:49;3.55;;;2.50;;
51778;SDS011;37843;53.266;6.746;2022-09-28T10:42:27;5.82;;;2.90;;
51778;SDS011;37843;53.266;6.746;2022-09-28T10:45:29;3.65;;;3.03;;
51778;SDS011;37843;53.266;6.746;2022-09-28T10:47:53;4.03;;;3.25;;
51778;SDS011;37843;53.266;6.746;2022-09-28T10:50:24;3.22;;;2.90;;
51778;SDS011;37843;53.266;6.746;2022-09-28T11:01:00;5.60;;;2.97;;
51778;SDS011;37843;53.266;6.746;2022-09-28T11:03:27;2.72;;;2.22;;
51778;SDS011;37843;53.266;6.746;2022-09-28T11:06:05;4.55;;;2.50;;
51778;SDS011;37843;53.266;6.746;2022-09-28T11:08:53;3.38;;;2.13;;
51778;SDS011;37843;53.266;6.746;2022-09-28T11:11:24;4.80;;;2.08;;
51778;SDS011;37843;53.266;6.746;2022-09-28T11:13:56;2.67;;;1.90;;
51778;SDS011;37843;53.266;6.746;2022-09-28T11:16:28;2.53;;;1.70;;
51778;SDS011;37843;53.266;6.746;2022-09-28T11:19:02;2.10;;;1.58;;
51778;SDS011;37843;53.266;6.746;2022-09-28T11:21:29;2.17;;;1.52;;
51778;SDS011;37843;53.266;6.746;2022-09-28T11:24:02;2.00;;;1.67;;
51778;SDS011;37843;53.266;6.746;2022-09-28T11:26:40;2.47;;;1.33;;
51778;SDS011;37843;53.266;6.746;2022-09-28T11:29:17;1.75;;;1.45;;
51778;SDS011;37843;53.266;6.746;2022-09-28T11:31:44;1.80;;;1.25;;
51778;SDS011;37843;53.266;6.746;2022-09-28T11:34:15;2.35;;;1.10;;
51778;SDS011;37843;53.266;6.746;2022-09-28T11:49:55;1.58;;;1.27;;
51778;SDS011;37843;53.266;6.746;2022-09-28T11:52:24;3.33;;;2.03;;
51778;SDS011;37843;53.266;6.746;2022-09-28T11:55:04;2.75;;;1.92;;
51778;SDS011;37843;53.266;6.746;2022-09-28T11:57:34;3.38;;;1.90;;
51778;SDS011;37843;53.266;6.746;2022-09-28T12:00:03;2.03;;;1.60;;
51778;SDS011;37843;53.266;6.746;2022-09-28T12:02:38;2.65;;;1.52;;
51778;SDS011;37843;53.266;6.746;2022-09-28T12:05:11;2.30;;;1.33;;
51778;SDS011;37843;53.266;6.746;2022-09-28T12:07:42;2.80;;;1.40;;
51778;SDS011;37843;53.266;6.746;2022-09-28T12:13:03;1.50;;;1.40;;
51778;SDS011;37843;53.266;6.746;2022-09-28T12:18:44;4.30;;;1.90;;
51778;SDS011;37843;53.266;6.746;2022-09-28T12:26:55;1.80;;;1.70;;
51778;SDS011;37843;53.266;6.746;2022-09-28T12:29:28;1.60;;;1.50;;
51778;SDS011;37843;53.266;6.746;2022-09-28T12:31:58;1.42;;;1.33;;
51778;SDS011;37843;53.266;6.746;2022-09-28T12:34:28;1.17;;;1.05;;
51778;SDS011;37843;53.266;6.746;2022-09-28T12:39:30;1.35;;;1.25;;
51778;SDS011;37843;53.266;6.746;2022-09-28T12:42:21;1.85;;;1.02;;
51778;SDS011;37843;53.266;6.746;2022-09-28T12:50:01;1.05;;;0.88;;
51778;SDS011;37843;53.266;6.746;2022-09-28T12:52:35;2.13;;;0.98;;
51778;SDS011;37843;53.266;6.746;2022-09-28T12:55:23;1.42;;;1.10;;
51778;SDS011;37843;53.266;6.746;2022-09-28T12:58:05;1.63;;;1.35;;
51778;SDS011;37843;53.266;6.746;2022-09-28T13:08:49;1.38;;;1.13;;
51778;SDS011;37843;53.266;6.746;2022-09-28T13:14:19;2.25;;;1.10;;
51778;SDS011;37843;53.266;6.746;2022-09-28T13:19:19;2.53;;;1.27;;
51778;SDS011;37843;53.266;6.746;2022-09-28T13:21:57;2.33;;;1.20;;
51778;SDS011;37843;53.266;6.746;2022-09-28T13:24:27;3.15;;;1.50;;
51778;SDS011;37843;53.266;6.746;2022-09-28T13:26:55;1.65;;;1.55;;
51778;SDS011;37843;53.266;6.746;2022-09-28T13:29:23;3.03;;;1.38;;
51778;SDS011;37843;53.266;6.746;2022-09-28T13:31:55;1.55;;;1.33;;
51778;SDS011;37843;53.266;6.746;2022-09-28T13:34:23;1.58;;;1.48;;
51778;SDS011;37843;53.266;6.746;2022-09-28T13:37:16;3.63;;;1.85;;
51778;SDS011;37843;53.266;6.746;2022-09-28T13:45:07;3.00;;;1.30;;
51778;SDS011;37843;53.266;6.746;2022-09-28T13:53:41;1.30;;;1.10;;
51778;SDS011;37843;53.266;6.746;2022-09-28T13:56:33;1.10;;;0.60;;
51778;SDS011;37843;53.266;6.746;2022-09-28T14:02:01;1.40;;;0.70;;
51778;SDS011;37843;53.266;6.746;2022-09-28T14:07:24;2.35;;;0.88;;
51778;SDS011;37843;53.266;6.746;2022-09-28T14:12:47;0.93;;;0.85;;
51778;SDS011;37843;53.266;6.746;2022-09-28T14:18:04;1.02;;;0.93;;
51778;SDS011;37843;53.266;6.746;2022-09-28T14:20:35;2.63;;;1.10;;
51778;SDS011;37843;53.266;6.746;2022-09-28T14:26:02;2.08;;;1.20;;
51778;SDS011;37843;53.266;6.746;2022-09-28T14:28:41;2.15;;;0.80;;
51778;SDS011;37843;53.266;6.746;2022-09-28T14:31:23;2.83;;;1.10;;
51778;SDS011;37843;53.266;6.746;2022-09-28T14:33:54;2.53;;;0.80;;
51778;SDS011;37843;53.266;6.746;2022-09-28T14:36:42;1.30;;;0.75;;
51778;SDS011;37843;53.266;6.746;2022-09-28T14:39:32;1.40;;;0.80;;
51778;SDS011;37843;53.266;6.746;2022-09-28T14:42:23;2.38;;;1.20;;
51778;SDS011;37843;53.266;6.746;2022-09-28T14:50:37;1.00;;;0.95;;
51778;SDS011;37843;53.266;6.746;2022-09-28T14:53:23;2.90;;;1.27;;
51778;SDS011;37843;53.266;6.746;2022-09-28T14:55:54;1.00;;;0.90;;
51778;SDS011;37843;53.266;6.746;2022-09-28T14:58:27;0.95;;;0.90;;
51778;SDS011;37843;53.266;6.746;2022-09-28T15:01:04;1.85;;;0.77;;
51778;SDS011;37843;53.266;6.746;2022-09-28T15:03:35;1.90;;;1.00;;
51778;SDS011;37843;53.266;6.746;2022-09-28T15:06:05;1.00;;;0.77;;
51778;SDS011;37843;53.266;6.746;2022-09-28T15:08:37;2.58;;;0.95;;
51778;SDS011;37843;53.266;6.746;2022-09-28T15:11:10;0.95;;;0.77;;
51778;SDS011;37843;53.266;6.746;2022-09-28T15:13:38;1.85;;;1.00;;
51778;SDS011;37843;53.266;6.746;2022-09-28T15:16:17;1.63;;;0.80;;
51778;SDS011;37843;53.266;6.746;2022-09-28T15:21:34;1.23;;;0.93;;
51778;SDS011;37843;53.266;6.746;2022-09-28T15:24:02;0.95;;;0.75;;
51778;SDS011;37843;53.266;6.746;2022-09-28T15:26:31;0.93;;;0.80;;
51778;SDS011;37843;53.266;6.746;2022-09-28T15:29:00;1.25;;;0.90;;
51778;SDS011;37843;53.266;6.746;2022-09-28T15:31:29;0.90;;;0.90;;
51778;SDS011;37843;53.266;6.746;2022-09-28T15:33:56;2.25;;;1.05;;
51778;SDS011;37843;53.266;6.746;2022-09-28T15:36:47;1.23;;;0.70;;
51778;SDS011;37843;53.266;6.746;2022-09-28T15:39:21;0.68;;;0.68;;
51778;SDS011;37843;53.266;6.746;2022-09-28T15:41:53;1.45;;;0.77;;
51778;SDS011;37843;53.266;6.746;2022-09-28T15:44:35;3.10;;;1.92;;
51778;SDS011;37843;53.266;6.746;2022-09-28T15:47:11;0.80;;;0.75;;
51778;SDS011;37843;53.266;6.746;2022-09-28T15:52:29;2.50;;;0.73;;
51778;SDS011;37843;53.266;6.746;2022-09-28T15:57:48;1.05;;;0.80;;
51778;SDS011;37843;53.266;6.746;2022-09-28T16:00:24;1.38;;;0.70;;
51778;SDS011;37843;53.266;6.746;2022-09-28T16:08:16;0.90;;;0.43;;
51778;SDS011;37843;53.266;6.746;2022-09-28T16:13:33;1.27;;;0.55;;
51778;SDS011;37843;53.266;6.746;2022-09-28T16:16:01;0.93;;;0.90;;
51778;SDS011;37843;53.266;6.746;2022-09-28T16:18:32;12.10;;;10.85;;
51778;SDS011;37843;53.266;6.746;2022-09-28T16:24:27;29.08;;;25.58;;
51778;SDS011;37843;53.266;6.746;2022-09-28T16:26:58;20.63;;;17.65;;
51778;SDS011;37843;53.266;6.746;2022-09-28T16:29:39;13.68;;;12.27;;
51778;SDS011;37843;53.266;6.746;2022-09-28T16:32:33;8.90;;;8.10;;
51778;SDS011;37843;53.266;6.746;2022-09-28T16:37:39;2.10;;;1.90;;
51778;SDS011;37843;53.266;6.746;2022-09-28T16:40:11;1.63;;;1.50;;
51778;SDS011;37843;53.266;6.746;2022-09-28T16:42:39;1.20;;;1.10;;
51778;SDS011;37843;53.266;6.746;2022-09-28T16:45:06;1.90;;;1.17;;
51778;SDS011;37843;53.266;6.746;2022-09-28T16:47:33;1.60;;;1.50;;
51778;SDS011;37843;53.266;6.746;2022-09-28T16:50:12;1.55;;;1.45;;
51778;SDS011;37843;53.266;6.746;2022-09-28T16:52:39;2.08;;;1.63;;
51778;SDS011;37843;53.266;6.746;2022-09-28T16:55:29;1.80;;;1.70;;
51778;SDS011;37843;53.266;6.746;2022-09-28T16:57:59;2.40;;;2.05;;
51778;SDS011;37843;53.266;6.746;2022-09-28T17:00:28;3.10;;;2.80;;
51778;SDS011;37843;53.266;6.746;2022-09-28T17:02:56;4.75;;;4.30;;
51778;SDS011;37843;53.266;6.746;2022-09-28T17:05:23;3.08;;;2.50;;
51778;SDS011;37843;53.266;6.746;2022-09-28T17:07:59;2.67;;;2.10;;
51778;SDS011;37843;53.266;6.746;2022-09-28T17:11:04;4.57;;;2.75;;
51778;SDS011;37843;53.266;6.746;2022-09-28T17:13:26;1.83;;;1.53;;
51778;SDS011;37843;53.266;6.746;2022-09-28T17:16:03;1.65;;;1.13;;
51778;SDS011;37843;53.266;6.746;2022-09-28T17:18:37;1.08;;;0.98;;
51778;SDS011;37843;53.266;6.746;2022-09-28T17:21:08;2.30;;;1.10;;
51778;SDS011;37843;53.266;6.746;2022-09-28T17:23:37;1.45;;;1.25;;
51778;SDS011;37843;53.266;6.746;2022-09-28T17:26:07;2.63;;;1.30;;
51778;SDS011;37843;53.266;6.746;2022-09-28T17:28:46;5.80;;;1.65;;
51778;SDS011;37843;53.266;6.746;2022-09-28T17:31:14;1.23;;;1.15;;
51778;SDS011;37843;53.266;6.746;2022-09-28T17:33:43;1.52;;;1.40;;
51778;SDS011;37843;53.266;6.746;2022-09-28T17:36:16;2.25;;;2.03;;
51778;SDS011;37843;53.266;6.746;2022-09-28T17:38:46;2.72;;;2.47;;
51778;SDS011;37843;53.266;6.746;2022-09-28T17:41:16;1.77;;;1.15;;
51778;SDS011;37843;53.266;6.746;2022-09-28T17:43:48;1.70;;;1.38;;
51778;SDS011;37843;53.266;6.746;2022-09-28T17:46:31;1.45;;;1.35;;
51778;SDS011;37843;53.266;6.746;2022-09-28T17:49:05;1.38;;;1.15;;
51778;SDS011;37843;53.266;6.746;2022-09-28T17:51:35;3.60;;;1.33;;
51778;SDS011;37843;53.266;6.746;2022-09-28T17:54:05;1.08;;;0.98;;
51778;SDS011;37843;53.266;6.746;2022-09-28T17:56:33;1.05;;;1.00;;
51778;SDS011;37843;53.266;6.746;2022-09-28T17:59:05;1.20;;;1.10;;
51778;SDS011;37843;53.266;6.746;2022-09-28T18:01:46;2.13;;;1.23;;
51778;SDS011;37843;53.266;6.746;2022-09-28T18:04:18;1.58;;;1.30;;
51778;SDS011;37843;53.266;6.746;2022-09-28T18:06:46;3.83;;;1.85;;
51778;SDS011;37843;53.266;6.746;2022-09-28T18:09:13;1.85;;;1.40;;
51778;SDS011;37843;53.266;6.746;2022-09-28T18:11:46;2.13;;;1.40;;